createdAt,value
2018-06-19T00:01:32.267Z,36.70
2018-06-19T00:04:01.319Z,35.33
2018-06-19T00:06:30.412Z,36.75
2018-06-19T00:08:59.467Z,36.17
2018-06-19T00:11:28.580Z,35.92
2018-06-19T00:13:57.314Z,39.20
2018-06-19T00:16:26.249Z,34.20
2018-06-19T00:18:56.302Z,32.80
2018-06-19T00:21:29.388Z,35.85
2018-06-19T00:23:58.452Z,34.83
2018-06-19T00:26:27.235Z,35.15
2018-06-19T00:28:56.252Z,33.40
2018-06-19T00:31:25.348Z,35.28
2018-06-19T00:33:54.359Z,33.63
2018-06-19T00:36:23.404Z,35.45
2018-06-19T00:38:52.442Z,35.95
2018-06-19T00:41:21.484Z,38.05
2018-06-19T00:43:50.492Z,35.45
2018-06-19T00:46:21.411Z,36.65
2018-06-19T00:48:50.456Z,35.05
2018-06-19T00:51:19.525Z,35.88
2018-06-19T00:53:48.286Z,37.45
2018-06-19T00:56:28.408Z,40.35
2018-06-19T00:58:57.400Z,36.83
2018-06-19T01:01:26.418Z,37.75
2018-06-19T01:03:55.515Z,35.45
2018-06-19T01:06:24.556Z,39.90
2018-06-19T01:08:53.571Z,38.10
2018-06-19T01:11:22.599Z,37.85
2018-06-19T01:13:51.636Z,37.30
2018-06-19T01:16:20.675Z,37.05
2018-06-19T01:18:49.741Z,35.83
2018-06-19T01:21:18.759Z,39.00
2018-06-19T01:23:47.803Z,37.65
2018-06-19T01:26:16.563Z,38.88
2018-06-19T01:28:45.616Z,37.70
2018-06-19T01:31:14.666Z,36.53
2018-06-19T01:33:43.683Z,35.65
2018-06-19T01:36:12.728Z,36.23
2018-06-19T01:38:41.729Z,37.45
2018-06-19T01:41:10.799Z,36.17
2018-06-19T01:43:39.811Z,41.70
2018-06-19T01:46:08.829Z,43.70
2018-06-19T01:48:37.880Z,40.15
2018-06-19T01:51:06.927Z,42.55
2018-06-19T01:53:35.960Z,40.70
2018-06-19T01:56:05.039Z,41.55
2018-06-19T01:58:34.051Z,43.73
2018-06-19T02:01:03.219Z,44.00
2018-06-19T02:03:32.244Z,41.80
2018-06-19T02:06:01.251Z,48.45
2018-06-19T02:08:30.287Z,49.08
2018-06-19T02:10:59.315Z,44.85
2018-06-19T02:13:28.361Z,46.35
2018-06-19T02:15:57.380Z,44.95
2018-06-19T02:18:26.431Z,43.55
2018-06-19T02:20:55.491Z,45.45
2018-06-19T02:23:24.504Z,45.50
2018-06-19T02:25:53.580Z,40.92
2018-06-19T02:28:22.595Z,44.58
2018-06-19T02:30:51.708Z,43.52
2018-06-19T02:33:20.748Z,42.30
2018-06-19T02:35:49.815Z,41.83
2018-06-19T02:38:19.374Z,42.48
2018-06-19T02:40:48.449Z,44.73
2018-06-19T02:43:17.456Z,40.95
2018-06-19T02:45:46.507Z,39.88
2018-06-19T02:48:15.522Z,42.35
2018-06-19T02:50:44.568Z,43.42
2018-06-19T02:53:13.624Z,43.58
2018-06-19T02:55:43.014Z,39.95
2018-06-19T02:58:12.031Z,41.95
2018-06-19T03:00:41.045Z,42.93
2018-06-19T03:03:10.093Z,41.00
2018-06-19T03:05:39.107Z,37.38
2018-06-19T03:08:08.146Z,42.33
2018-06-19T03:10:37.231Z,38.63
2018-06-19T03:13:06.272Z,41.15
2018-06-19T03:15:35.295Z,40.63
2018-06-19T03:18:04.369Z,39.38
2018-06-19T03:20:33.390Z,39.75
2018-06-19T03:23:02.437Z,39.58
2018-06-19T03:25:31.531Z,37.78
2018-06-19T03:28:00.287Z,40.45
2018-06-19T03:30:29.361Z,39.13
2018-06-19T03:32:58.357Z,37.67
2018-06-19T03:35:27.380Z,39.18
2018-06-19T03:37:56.419Z,39.42
2018-06-19T03:40:25.435Z,38.25
2018-06-19T03:42:54.523Z,41.55
2018-06-19T03:45:23.534Z,39.23
2018-06-19T03:47:52.585Z,39.08
2018-06-19T03:50:21.629Z,39.35
2018-06-19T03:52:50.679Z,37.13
2018-06-19T03:55:19.700Z,39.27
2018-06-19T03:57:48.771Z,40.33
2018-06-19T04:00:17.891Z,38.15
2018-06-19T04:02:46.928Z,37.55
2018-06-19T04:05:15.946Z,36.53
2018-06-19T04:07:45.009Z,37.78
2018-06-19T04:10:14.088Z,37.67
2018-06-19T04:12:43.220Z,36.93
2018-06-19T04:15:12.266Z,40.95
2018-06-19T04:17:41.311Z,38.73
2018-06-19T04:20:10.051Z,36.20
2018-06-19T04:22:39.008Z,37.70
2018-06-19T04:25:08.031Z,37.65
2018-06-19T04:27:37.078Z,39.40
2018-06-19T04:30:06.144Z,40.12
2018-06-19T04:32:35.206Z,38.23
2018-06-19T04:35:04.284Z,38.98
2018-06-19T04:37:33.327Z,38.45
2018-06-19T04:40:02.364Z,39.80
2018-06-19T04:42:31.404Z,38.92
2018-06-19T04:45:00.416Z,40.10
2018-06-19T04:47:29.465Z,37.45
2018-06-19T04:49:58.520Z,37.45
2018-06-19T04:52:27.564Z,36.70
2018-06-19T04:54:56.595Z,37.42
2018-06-19T04:57:25.635Z,37.95
2018-06-19T04:59:54.649Z,38.20
2018-06-19T05:02:23.728Z,37.75
2018-06-19T05:04:52.759Z,37.90
2018-06-19T05:07:21.809Z,38.15
2018-06-19T05:09:50.824Z,38.53
2018-06-19T05:12:19.875Z,35.75
2018-06-19T05:14:48.896Z,39.00
2018-06-19T05:17:17.977Z,37.78
2018-06-19T05:19:47.093Z,38.17
2018-06-19T05:22:16.132Z,38.78
2018-06-19T05:24:45.176Z,39.18
2018-06-19T05:27:14.231Z,41.80
2018-06-19T05:29:43.249Z,39.92
2018-06-19T05:32:12.296Z,38.85
2018-06-19T05:34:41.344Z,39.48
2018-06-19T05:37:10.400Z,38.20
2018-06-19T05:39:39.415Z,36.73
2018-06-19T05:42:08.478Z,41.02
2018-06-19T05:44:37.484Z,37.70
2018-06-19T05:47:06.623Z,39.78
2018-06-19T05:49:35.644Z,40.48
2018-06-19T05:52:04.713Z,40.73
2018-06-19T05:54:34.241Z,38.28
2018-06-19T05:57:03.319Z,37.50
2018-06-19T05:59:32.407Z,39.98
2018-06-19T06:02:01.440Z,39.70
2018-06-19T06:04:30.528Z,40.83
2018-06-19T06:06:59.540Z,39.13
2018-06-19T06:09:28.594Z,39.90
2018-06-19T06:11:57.601Z,38.67
2018-06-19T06:14:26.649Z,38.10
2018-06-19T06:16:55.676Z,38.80
2018-06-19T06:19:24.886Z,42.35
2018-06-19T06:21:54.252Z,46.63
2018-06-19T06:24:23.352Z,40.60
2018-06-19T06:26:52.144Z,44.05
2018-06-19T06:29:21.105Z,44.03
2018-06-19T06:31:50.225Z,44.13
2018-06-19T06:34:19.279Z,45.92
2018-06-19T06:36:48.301Z,43.52
2018-06-19T06:39:17.512Z,44.77
2018-06-19T06:41:46.579Z,45.33
2018-06-19T06:44:15.647Z,45.43
2018-06-19T06:46:44.747Z,46.30
2018-06-19T06:49:13.825Z,49.97
2018-06-19T06:51:42.860Z,52.23
2018-06-19T06:54:11.937Z,49.53
2018-06-19T06:56:41.012Z,52.13
2018-06-19T06:59:10.271Z,51.80
2018-06-19T07:01:39.414Z,49.43
2018-06-19T07:04:08.813Z,50.30
2018-06-19T07:06:37.965Z,52.43
2018-06-19T07:09:09.096Z,50.50
2018-06-19T07:11:38.244Z,52.17
2018-06-19T07:14:07.788Z,53.20
2018-06-19T07:16:37.245Z,56.50
2018-06-19T07:19:06.611Z,55.40
2018-06-19T07:21:35.718Z,55.37
2018-06-19T07:24:04.545Z,54.27
2018-06-19T07:26:33.857Z,51.20
2018-06-19T07:29:03.493Z,53.43
2018-06-19T07:31:32.559Z,63.57
2018-06-19T07:34:01.691Z,54.53
2018-06-19T07:36:30.758Z,55.60
2018-06-19T07:38:59.882Z,54.73
2018-06-19T07:41:29.081Z,57.00
2018-06-19T07:43:58.389Z,55.53
2018-06-19T07:46:27.519Z,58.97
2018-06-19T07:48:56.580Z,58.93
2018-06-19T07:51:25.650Z,58.50
2018-06-19T07:53:55.862Z,55.50
2018-06-19T07:56:25.054Z,56.97
2018-06-19T07:58:54.370Z,57.53
2018-06-19T08:01:23.629Z,56.30
2018-06-19T08:03:52.993Z,59.03
2018-06-19T08:06:22.448Z,57.37
2018-06-19T08:08:51.581Z,56.80
2018-06-19T08:11:20.912Z,55.53
2018-06-19T08:13:50.035Z,57.70
2018-06-19T08:16:19.423Z,55.30
2018-06-19T08:18:48.681Z,55.00
2018-06-19T08:21:18.078Z,57.70
2018-06-19T08:23:47.335Z,57.77
2018-06-19T08:26:16.486Z,53.83
2018-06-19T08:28:45.996Z,51.10
2018-06-19T08:31:15.360Z,53.17
2018-06-19T08:33:44.652Z,54.40
2018-06-19T08:36:14.343Z,50.17
2018-06-19T08:38:43.907Z,53.47
2018-06-19T08:41:13.400Z,57.23
2018-06-19T08:43:43.825Z,53.33
2018-06-19T08:46:13.261Z,53.70
2018-06-19T08:48:42.363Z,54.40
2018-06-19T08:51:11.620Z,56.37
2018-06-19T08:53:40.744Z,52.10
2018-06-19T08:56:09.523Z,52.57
2018-06-19T08:58:38.279Z,57.10
2018-06-19T09:01:07.537Z,53.90
2018-06-19T09:03:36.673Z,56.17
2018-06-19T09:06:05.801Z,52.20
2018-06-19T09:08:35.414Z,53.30
2018-06-19T09:11:04.603Z,53.50
2018-06-19T09:13:33.708Z,52.27
2018-06-19T09:16:02.862Z,55.40
2018-06-19T09:18:32.087Z,58.40
2018-06-19T09:21:01.352Z,58.80
2018-06-19T09:23:30.534Z,56.47
2018-06-19T09:25:59.656Z,54.13
2018-06-19T09:28:29.017Z,57.80
2018-06-19T09:30:58.154Z,57.67
2018-06-19T09:33:29.317Z,55.40
2018-06-19T09:35:58.371Z,55.10
2018-06-19T09:38:27.459Z,57.53
2018-06-19T09:40:56.650Z,57.37
2018-06-19T09:43:25.755Z,55.97
2018-06-19T09:45:55.079Z,54.67
2018-06-19T09:48:24.653Z,53.70
2018-06-19T09:50:54.890Z,55.83
2018-06-19T09:53:24.575Z,55.17
2018-06-19T09:55:54.247Z,54.90
2018-06-19T09:58:24.564Z,53.40
2018-06-19T10:00:56.360Z,56.30
2018-06-19T10:03:28.804Z,54.07
2018-06-19T10:05:59.297Z,54.30
2018-06-19T10:08:30.231Z,55.13
2018-06-19T10:11:00.283Z,53.50
2018-06-19T10:13:32.559Z,56.40
2018-06-19T10:16:01.685Z,52.17
2018-06-19T10:18:30.877Z,51.30
2018-06-19T10:20:59.931Z,53.97
2018-06-19T10:23:29.191Z,54.50
2018-06-19T10:25:59.787Z,55.20
2018-06-19T10:28:29.251Z,50.47
2018-06-19T10:30:58.968Z,52.03
2018-06-19T10:33:28.040Z,52.80
2018-06-19T10:35:57.122Z,52.10
2018-06-19T10:38:25.861Z,48.50
2018-06-19T10:40:54.977Z,49.57
2018-06-19T10:43:24.001Z,53.13
2018-06-19T10:45:53.190Z,45.60
2018-06-19T10:48:22.500Z,50.17
2018-06-19T10:50:51.562Z,54.60
2018-06-19T10:53:20.588Z,52.27
2018-06-19T10:55:49.923Z,57.03
2018-06-19T10:58:19.299Z,54.10
2018-06-19T11:00:48.319Z,57.57
2018-06-19T11:03:17.403Z,54.33
2018-06-19T11:05:46.464Z,57.30
2018-06-19T11:08:15.548Z,59.70
2018-06-19T11:10:44.631Z,54.90
2018-06-19T11:13:13.699Z,60.80
2018-06-19T11:15:42.727Z,57.97
2018-06-19T11:18:11.756Z,57.57
2018-06-19T11:20:40.829Z,59.27
2018-06-19T11:23:09.888Z,60.60
2018-06-19T11:25:38.960Z,56.77
2018-06-19T11:28:08.012Z,61.70
2018-06-19T11:30:37.068Z,61.50
2018-06-19T11:33:06.169Z,59.97
2018-06-19T11:35:35.293Z,63.07
2018-06-19T11:38:04.356Z,58.97
2018-06-19T11:40:33.383Z,61.27
2018-06-19T11:43:02.468Z,56.70
2018-06-19T11:45:31.505Z,57.10
2018-06-19T11:48:00.559Z,58.57
2018-06-19T11:50:29.568Z,57.23
2018-06-19T11:52:59.232Z,58.50
2018-06-19T11:55:28.252Z,57.67
2018-06-19T11:57:57.262Z,58.10
2018-06-19T12:00:26.362Z,55.23
2018-06-19T12:02:55.492Z,55.07
2018-06-19T12:05:24.500Z,54.30
2018-06-19T12:07:53.591Z,61.27
2018-06-19T12:10:22.713Z,54.67
2018-06-19T12:12:51.724Z,57.87
2018-06-19T12:15:21.088Z,57.27
2018-06-19T12:17:50.111Z,55.80
2018-06-19T12:20:19.128Z,57.63
2018-06-19T12:22:48.180Z,56.97
2018-06-19T12:25:17.264Z,54.60
2018-06-19T12:27:46.359Z,52.40
2018-06-19T12:30:15.378Z,51.97
2018-06-19T12:32:44.433Z,54.27
2018-06-19T12:35:14.389Z,59.70
2018-06-19T12:37:43.434Z,56.87
2018-06-19T12:40:12.462Z,52.13
2018-06-19T12:42:41.560Z,52.87
2018-06-19T12:45:10.651Z,59.03
2018-06-19T12:47:39.724Z,50.80
2018-06-19T12:52:21.511Z,52.90
2018-06-19T12:55:14.063Z,50.20
2018-06-19T12:57:43.175Z,50.20
2018-06-19T13:00:12.759Z,48.73
2018-06-19T13:02:51.780Z,51.10
2018-06-19T13:05:32.102Z,55.03
2018-06-19T13:08:01.147Z,55.37
2018-06-19T13:10:30.213Z,54.73
2018-06-19T13:13:35.150Z,52.70
2018-06-19T13:16:04.212Z,57.27
2018-06-19T13:18:44.928Z,57.00
2018-06-19T13:21:13.667Z,55.73
2018-06-19T13:23:42.731Z,56.17
2018-06-19T13:26:11.720Z,52.73
2018-06-19T13:29:53.300Z,57.70
2018-06-19T13:32:22.838Z,53.47
2018-06-19T13:34:51.999Z,52.30
2018-06-19T13:37:21.118Z,52.47
2018-06-19T13:42:02.855Z,52.30
2018-06-19T13:44:43.119Z,51.93
2018-06-19T13:47:12.196Z,48.90
2018-06-19T13:49:41.273Z,52.43
2018-06-19T13:52:10.301Z,46.87
2018-06-19T13:54:39.371Z,48.43
2018-06-19T13:57:50.139Z,51.30
2018-06-19T14:00:20.576Z,46.07
2018-06-19T14:02:49.893Z,49.07
2018-06-19T14:05:19.749Z,50.40
2018-06-19T14:08:03.613Z,49.20
2018-06-19T14:13:03.121Z,52.90
2018-06-19T14:15:35.712Z,45.17
2018-06-19T14:18:05.287Z,48.77
2018-06-19T14:20:34.411Z,53.17
2018-06-19T14:23:03.503Z,49.03
2018-06-19T14:25:32.523Z,46.87
2018-06-19T14:28:01.601Z,48.83
2018-06-19T14:30:30.660Z,49.70
2018-06-19T14:32:59.688Z,48.90
2018-06-19T14:35:28.765Z,52.83
2018-06-19T14:37:57.797Z,52.50
2018-06-19T14:40:26.908Z,50.30
2018-06-19T14:42:55.976Z,51.43
2018-06-19T14:45:25.293Z,51.97
2018-06-19T14:47:54.327Z,55.70
2018-06-19T14:50:23.472Z,55.87
2018-06-19T14:52:52.502Z,55.30
2018-06-19T14:55:21.563Z,50.90
2018-06-19T14:57:50.690Z,50.80
2018-06-19T15:00:19.988Z,47.60
2018-06-19T15:02:49.038Z,47.07
2018-06-19T15:05:18.658Z,45.60
2018-06-19T15:07:51.626Z,45.60
2018-06-19T15:10:20.944Z,48.77
2018-06-19T15:12:50.051Z,50.57
2018-06-19T15:15:19.099Z,52.10
2018-06-19T15:17:48.108Z,55.27
2018-06-19T15:20:17.459Z,57.57
2018-06-19T15:22:46.536Z,53.47
2018-06-19T15:25:15.633Z,54.37
2018-06-19T15:27:44.679Z,54.00
2018-06-19T15:30:13.733Z,54.30
2018-06-19T15:32:42.928Z,57.10
2018-06-19T15:35:12.212Z,56.17
2018-06-19T15:37:41.334Z,59.63
2018-06-19T15:40:10.465Z,58.20
2018-06-19T15:42:39.223Z,55.47
2018-06-19T15:45:08.273Z,53.27
2018-06-19T15:47:37.306Z,56.07
2018-06-19T15:50:06.647Z,58.00
2018-06-19T15:52:35.781Z,55.43
2018-06-19T15:55:04.896Z,52.90
2018-06-19T15:57:33.976Z,54.47
2018-06-19T16:00:03.135Z,52.57
2018-06-19T16:02:32.190Z,55.57
2018-06-19T16:05:01.248Z,54.97
2018-06-19T16:07:30.515Z,57.77
2018-06-19T16:09:59.589Z,58.57
2018-06-19T16:12:28.656Z,58.37
2018-06-19T16:14:57.726Z,58.70
2018-06-19T16:17:26.886Z,60.07
2018-06-19T16:19:55.991Z,56.97
2018-06-19T16:22:25.056Z,57.97
2018-06-19T16:24:54.192Z,56.00
2018-06-19T16:27:23.339Z,56.50
2018-06-19T16:29:52.428Z,56.53
2018-06-19T16:32:21.514Z,59.03
2018-06-19T16:34:50.525Z,57.70
2018-06-19T16:37:19.628Z,57.00
2018-06-19T16:39:48.765Z,55.53
2018-06-19T16:42:17.539Z,56.13
2018-06-19T16:44:46.698Z,56.07
2018-06-19T16:47:15.985Z,53.60
2018-06-19T16:49:44.995Z,55.53
2018-06-19T16:52:14.850Z,56.10
2018-06-19T16:54:44.011Z,53.87
2018-06-19T16:57:13.069Z,59.67
2018-06-19T16:59:42.171Z,51.33
2018-06-19T17:02:11.314Z,50.63
2018-06-19T17:04:40.385Z,52.17
2018-06-19T17:07:09.825Z,52.63
2018-06-19T17:09:38.633Z,52.40
2018-06-19T17:12:07.667Z,54.83
2018-06-19T17:14:36.818Z,56.70
2018-06-19T17:17:05.667Z,58.10
2018-06-19T17:19:34.686Z,54.50
2018-06-19T17:22:03.793Z,58.87
2018-06-19T17:24:32.866Z,54.77
2018-06-19T17:27:01.873Z,52.67
2018-06-19T17:29:30.998Z,54.90
2018-06-19T17:32:00.093Z,54.17
2018-06-19T17:34:29.112Z,51.40
2018-06-19T17:36:58.168Z,57.00
2018-06-19T17:39:27.207Z,56.30
2018-06-19T17:41:56.270Z,57.20
2018-06-19T17:44:25.471Z,54.77
2018-06-19T17:46:54.653Z,56.67
2018-06-19T17:49:36.390Z,56.27
2018-06-19T17:52:05.471Z,55.10
2018-06-19T17:54:34.557Z,56.53
2018-06-19T17:57:03.701Z,56.97
2018-06-19T17:59:32.751Z,55.10
2018-06-19T18:02:01.957Z,53.40
2018-06-19T18:04:31.093Z,54.07
2018-06-19T18:07:00.327Z,56.37
2018-06-19T18:09:29.417Z,53.67
2018-06-19T18:11:58.609Z,55.30
2018-06-19T18:14:27.733Z,55.87
2018-06-19T18:16:57.052Z,52.67
2018-06-19T18:19:26.157Z,54.57
2018-06-19T18:21:55.324Z,50.00
2018-06-19T18:24:24.866Z,50.67
2018-06-19T18:26:53.919Z,68.73
2018-06-19T18:29:23.212Z,52.87
2018-06-19T18:32:05.744Z,52.47
2018-06-19T18:34:38.998Z,53.27
2018-06-19T18:37:11.064Z,51.27
2018-06-19T18:39:40.265Z,51.20
2018-06-19T18:42:09.968Z,52.67
2018-06-19T18:44:38.937Z,52.47
2018-06-19T18:47:07.962Z,54.83
2018-06-19T18:49:36.928Z,51.87
2018-06-19T18:52:06.130Z,54.07
2018-06-19T18:54:35.194Z,57.07
2018-06-19T18:57:04.344Z,56.57
2018-06-19T18:59:33.443Z,54.67
2018-06-19T19:02:02.515Z,56.03
2018-06-19T19:04:31.548Z,53.57
2018-06-19T19:07:00.736Z,54.37
2018-06-19T19:09:29.953Z,55.57
2018-06-19T19:11:59.235Z,52.47
2018-06-19T19:14:32.713Z,55.00
2018-06-19T19:17:07.161Z,48.50
2018-06-19T19:19:36.380Z,49.87
2018-06-19T19:22:05.531Z,48.57
2018-06-19T19:24:34.639Z,50.50
2018-06-19T19:27:09.008Z,50.33
2018-06-19T19:29:43.670Z,46.13
2018-06-19T19:32:12.827Z,47.20
2018-06-19T19:34:42.060Z,45.50
2018-06-19T19:39:23.068Z,45.17
2018-06-19T19:41:52.501Z,37.58
2018-06-19T19:44:21.906Z,38.98
2018-06-19T19:46:56.509Z,38.50
2018-06-19T19:49:25.695Z,38.70
2018-06-19T19:51:54.919Z,40.10
2018-06-19T19:54:24.098Z,38.48
2018-06-19T19:56:58.465Z,46.20
2018-06-19T19:59:27.681Z,37.05
2018-06-19T20:01:56.894Z,34.20
2018-06-19T20:04:26.089Z,36.73
2018-06-19T20:06:54.924Z,34.25
2018-06-19T20:09:23.899Z,33.88
2018-06-19T20:11:52.996Z,35.13
2018-06-19T20:14:22.226Z,33.65
2018-06-19T20:16:51.388Z,33.13
2018-06-19T20:19:20.665Z,33.67
2018-06-19T20:21:49.671Z,37.75
2018-06-19T20:24:18.931Z,35.10
2018-06-19T20:26:48.147Z,35.05
2018-06-19T20:29:17.391Z,34.08
2018-06-19T20:31:46.629Z,33.53
2018-06-19T20:34:17.686Z,34.43
2018-06-19T20:36:47.269Z,34.55
2018-06-19T20:39:16.475Z,34.25
2018-06-19T20:41:45.886Z,35.08
2018-06-19T20:44:15.508Z,37.20
2018-06-19T20:46:44.677Z,36.10
2018-06-19T20:49:13.849Z,36.80
2018-06-19T20:51:43.418Z,35.63
2018-06-19T20:54:12.230Z,38.65
2018-06-19T20:56:41.346Z,35.75
2018-06-19T20:59:10.590Z,36.13
2018-06-19T21:01:39.782Z,35.03
2018-06-19T21:04:08.971Z,34.13
2018-06-19T21:06:38.088Z,35.33
2018-06-19T21:09:08.227Z,36.08
2018-06-19T21:11:37.418Z,33.83
2018-06-19T21:14:06.548Z,37.30
2018-06-19T21:16:36.004Z,33.60
2018-06-19T21:19:05.089Z,33.65
2018-06-19T21:21:34.286Z,33.90
2018-06-19T21:24:03.389Z,36.20
2018-06-19T21:26:32.489Z,33.02
2018-06-19T21:29:01.551Z,32.35
2018-06-19T21:31:30.659Z,31.90
2018-06-19T21:33:59.741Z,32.30
2018-06-19T21:36:28.856Z,32.15
2018-06-19T21:38:57.859Z,32.50
2018-06-19T21:41:26.867Z,34.20
2018-06-19T21:43:56.314Z,31.68
2018-06-19T21:46:25.332Z,32.83
2018-06-19T21:48:54.414Z,32.20
2018-06-19T21:51:23.489Z,31.93
2018-06-19T21:53:52.659Z,32.60
2018-06-19T21:56:21.743Z,32.67
2018-06-19T21:58:50.776Z,32.40
2018-06-19T22:01:19.836Z,32.45
2018-06-19T22:03:49.214Z,33.45
2018-06-19T22:06:18.135Z,31.75
2018-06-19T22:08:51.782Z,33.15
2018-06-19T22:11:21.348Z,31.97
2018-06-19T22:13:50.076Z,31.10
2018-06-19T22:16:19.035Z,31.10
2018-06-19T22:18:48.147Z,32.23
2018-06-19T22:21:17.191Z,32.20
2018-06-19T22:23:46.263Z,32.80
2018-06-19T22:26:15.274Z,32.10
2018-06-19T22:28:44.360Z,31.10
2018-06-19T22:31:13.438Z,31.25
2018-06-19T22:33:42.492Z,32.13
2018-06-19T22:36:11.517Z,33.30
2018-06-19T22:38:40.603Z,31.50
2018-06-19T22:41:09.647Z,31.75
2018-06-19T22:43:38.711Z,32.20
2018-06-19T22:46:07.743Z,32.55
2018-06-19T22:48:36.780Z,32.95
2018-06-19T22:51:05.900Z,31.85
2018-06-19T22:53:34.964Z,32.40
2018-06-19T22:56:04.025Z,32.35
2018-06-19T22:58:33.065Z,32.35
2018-06-19T23:01:02.104Z,32.75
2018-06-19T23:03:31.183Z,31.50
2018-06-19T23:06:00.256Z,31.62
2018-06-19T23:08:33.899Z,32.08
2018-06-19T23:11:03.067Z,32.98
2018-06-19T23:13:32.156Z,31.87
2018-06-19T23:16:01.246Z,33.10
2018-06-19T23:18:30.303Z,32.93
2018-06-19T23:20:59.344Z,32.70
2018-06-19T23:23:28.390Z,32.23
2018-06-19T23:25:57.428Z,37.08
2018-06-19T23:28:26.468Z,31.35
2018-06-19T23:30:55.476Z,32.70
2018-06-19T23:33:24.530Z,32.50
2018-06-19T23:35:53.571Z,33.48
2018-06-19T23:38:22.608Z,35.15
2018-06-19T23:40:51.712Z,34.55
2018-06-19T23:43:20.715Z,34.20
2018-06-19T23:45:49.747Z,34.85
2018-06-19T23:48:18.798Z,32.83
2018-06-19T23:50:47.844Z,33.45
2018-06-19T23:53:16.852Z,36.33
2018-06-19T23:55:45.924Z,34.90
2018-06-19T23:58:14.938Z,34.45
